sensor_id;sensor_type;location;lat;lon;timestamp;pressure;altitude;pressure_sealevel;temperature;humidity
42169;BME280;27838;43.858;25.974;2024-02-26T00:01:46;100684.56;;;14.89;52.68
42169;BME280;27838;43.858;25.974;2024-02-26T00:04:13;100681.13;;;14.85;52.46
42169;BME280;27838;43.858;25.974;2024-02-26T00:06:39;100682.88;;;14.83;52.30
42169;BME280;27838;43.858;25.974;2024-02-26T00:09:07;100661.97;;;14.80;52.64
42169;BME280;27838;43.858;25.974;2024-02-26T00:11:37;100665.38;;;14.85;51.88
42169;BME280;27838;43.858;25.974;2024-02-26T00:14:04;100674.97;;;14.86;52.44
42169;BME280;27838;43.858;25.974;2024-02-26T00:16:31;100666.31;;;14.81;52.55
42169;BME280;27838;43.858;25.974;2024-02-26T00:18:58;100674.22;;;14.78;52.84
42169;BME280;27838;43.858;25.974;2024-02-26T00:21:24;100669.06;;;14.75;52.45
42169;BME280;27838;43.858;25.974;2024-02-26T00:23:53;100667.34;;;14.72;52.77
42169;BME280;27838;43.858;25.974;2024-02-26T00:26:19;100675.31;;;14.68;53.07
42169;BME280;27838;43.858;25.974;2024-02-26T00:28:46;100668.38;;;14.64;53.62
42169;BME280;27838;43.858;25.974;2024-02-26T00:31:12;100671.00;;;14.64;53.34
42169;BME280;27838;43.858;25.974;2024-02-26T00:33:39;100673.59;;;14.65;53.48
42169;BME280;27838;43.858;25.974;2024-02-26T00:36:06;100669.31;;;14.61;53.63
42169;BME280;27838;43.858;25.974;2024-02-26T00:38:32;100666.72;;;14.60;53.03
42169;BME280;27838;43.858;25.974;2024-02-26T00:40:59;100659.72;;;14.59;53.01
42169;BME280;27838;43.858;25.974;2024-02-26T00:43:26;100652.75;;;14.56;52.79
42169;BME280;27838;43.858;25.974;2024-02-26T00:45:52;100652.81;;;14.53;53.46
42169;BME280;27838;43.858;25.974;2024-02-26T00:48:19;100658.16;;;14.47;53.43
42169;BME280;27838;43.858;25.974;2024-02-26T00:50:45;100651.22;;;14.43;53.08
42169;BME280;27838;43.858;25.974;2024-02-26T00:53:12;100647.81;;;14.38;53.71
42169;BME280;27838;43.858;25.974;2024-02-26T00:55:38;100647.94;;;14.31;53.42
42169;BME280;27838;43.858;25.974;2024-02-26T00:58:05;100645.41;;;14.25;53.78
42169;BME280;27838;43.858;25.974;2024-02-26T01:00:31;100645.41;;;14.25;53.69
42169;BME280;27838;43.858;25.974;2024-02-26T01:02:58;100637.50;;;14.27;53.49
42169;BME280;27838;43.858;25.974;2024-02-26T01:05:25;100635.06;;;14.18;53.76
42169;BME280;27838;43.858;25.974;2024-02-26T01:07:51;100630.00;;;14.05;53.76
42169;BME280;27838;43.858;25.974;2024-02-26T01:10:18;100641.25;;;14.12;54.19
42169;BME280;27838;43.858;25.974;2024-02-26T01:12:44;100638.66;;;14.12;54.13
42169;BME280;27838;43.858;25.974;2024-02-26T01:15:11;100629.94;;;14.08;53.77
42169;BME280;27838;43.858;25.974;2024-02-26T01:17:38;100627.38;;;14.05;53.64
42169;BME280;27838;43.858;25.974;2024-02-26T01:20:05;100629.19;;;14.03;54.08
42169;BME280;27838;43.858;25.974;2024-02-26T01:22:31;100635.28;;;14.02;54.33
42169;BME280;27838;43.858;25.974;2024-02-26T01:24:58;100628.34;;;14.00;54.45
42169;BME280;27838;43.858;25.974;2024-02-26T01:27:24;100628.31;;;14.01;54.00
42169;BME280;27838;43.858;25.974;2024-02-26T01:29:52;100624.88;;;13.96;54.50
42169;BME280;27838;43.858;25.974;2024-02-26T01:32:19;100631.03;;;13.95;54.56
42169;BME280;27838;43.858;25.974;2024-02-26T01:34:46;100628.38;;;13.98;53.99
42169;BME280;27838;43.858;25.974;2024-02-26T01:37:12;100626.63;;;13.97;53.95
42169;BME280;27838;43.858;25.974;2024-02-26T01:39:39;100634.56;;;13.92;54.50
42169;BME280;27838;43.858;25.974;2024-02-26T01:42:07;100632.88;;;13.88;54.21
42169;BME280;27838;43.858;25.974;2024-02-26T01:44:33;100630.25;;;13.88;54.67
42169;BME280;27838;43.858;25.974;2024-02-26T01:47:00;100625.84;;;13.90;54.74
42169;BME280;27838;43.858;25.974;2024-02-26T01:49:28;100637.16;;;13.94;54.57
42169;BME280;27838;43.858;25.974;2024-02-26T01:51:55;100626.63;;;13.97;53.91
42169;BME280;27838;43.858;25.974;2024-02-26T01:54:23;100623.19;;;13.95;54.05
42169;BME280;27838;43.858;25.974;2024-02-26T01:56:50;100623.22;;;13.92;54.28
42169;BME280;27838;43.858;25.974;2024-02-26T01:59:16;100626.78;;;13.88;55.07
42169;BME280;27838;43.858;25.974;2024-02-26T02:01:44;100625.00;;;13.90;54.39
42169;BME280;27838;43.858;25.974;2024-02-26T02:04:14;100629.44;;;13.86;55.27
42169;BME280;27838;43.858;25.974;2024-02-26T02:06:41;100606.84;;;13.79;54.74
42169;BME280;27838;43.858;25.974;2024-02-26T02:09:11;100626.81;;;13.85;55.04
42169;BME280;27838;43.858;25.974;2024-02-26T02:11:37;100616.34;;;13.85;54.80
42169;BME280;27838;43.858;25.974;2024-02-26T02:14:04;100615.56;;;13.78;54.78
42169;BME280;27838;43.858;25.974;2024-02-26T02:16:31;100616.50;;;13.75;54.57
42169;BME280;27838;43.858;25.974;2024-02-26T02:18:58;100623.50;;;13.73;54.66
42169;BME280;27838;43.858;25.974;2024-02-26T02:21:25;100630.50;;;13.71;54.87
42169;BME280;27838;43.858;25.974;2024-02-26T02:23:51;100624.34;;;13.75;54.57
42169;BME280;27838;43.858;25.974;2024-02-26T02:26:18;100625.22;;;13.74;54.80
42169;BME280;27838;43.858;25.974;2024-02-26T02:28:46;100630.50;;;13.71;54.63
42169;BME280;27838;43.858;25.974;2024-02-26T02:31:13;100621.84;;;13.66;54.64
42169;BME280;27838;43.858;25.974;2024-02-26T02:33:40;100623.63;;;13.64;54.80
42169;BME280;27838;43.858;25.974;2024-02-26T02:36:07;100620.28;;;13.54;55.59
42169;BME280;27838;43.858;25.974;2024-02-26T02:38:36;100623.00;;;13.47;55.49
42169;BME280;27838;43.858;25.974;2024-02-26T02:41:03;100631.75;;;13.46;55.41
42169;BME280;27838;43.858;25.974;2024-02-26T02:43:30;100633.47;;;13.47;55.20
42169;BME280;27838;43.858;25.974;2024-02-26T02:45:56;100628.31;;;13.42;55.42
42169;BME280;27838;43.858;25.974;2024-02-26T02:48:23;100629.19;;;13.41;55.36
42169;BME280;27838;43.858;25.974;2024-02-26T02:50:49;100636.19;;;13.40;55.59
42169;BME280;27838;43.858;25.974;2024-02-26T02:53:16;100639.63;;;13.44;55.02
42169;BME280;27838;43.858;25.974;2024-02-26T02:55:43;100643.13;;;13.41;55.08
42169;BME280;27838;43.858;25.974;2024-02-26T02:58:10;100644.03;;;13.42;55.42
42169;BME280;27838;43.858;25.974;2024-02-26T03:00:36;100642.31;;;13.36;55.55
42169;BME280;27838;43.858;25.974;2024-02-26T03:03:03;100653.69;;;13.37;55.82
42169;BME280;27838;43.858;25.974;2024-02-26T03:05:30;100655.47;;;13.30;56.02
42169;BME280;27838;43.858;25.974;2024-02-26T03:07:57;100655.47;;;13.30;56.24
42169;BME280;27838;43.858;25.974;2024-02-26T03:10:24;100652.84;;;13.33;55.59
42169;BME280;27838;43.858;25.974;2024-02-26T03:12:50;100660.66;;;13.36;55.97
42169;BME280;27838;43.858;25.974;2024-02-26T03:15:17;100664.06;;;13.41;55.54
42169;BME280;27838;43.858;25.974;2024-02-26T03:17:43;100663.22;;;13.41;55.66
42169;BME280;27838;43.858;25.974;2024-02-26T03:20:10;100652.75;;;13.41;55.73
42169;BME280;27838;43.858;25.974;2024-02-26T03:22:38;100659.78;;;13.36;56.12
42169;BME280;27838;43.858;25.974;2024-02-26T03:25:06;100655.50;;;13.32;55.69
42169;BME280;27838;43.858;25.974;2024-02-26T03:27:33;100650.25;;;13.29;55.74
42169;BME280;27838;43.858;25.974;2024-02-26T03:29:59;100645.84;;;13.31;55.50
42169;BME280;27838;43.858;25.974;2024-02-26T03:32:26;100645.06;;;13.24;56.10
42169;BME280;27838;43.858;25.974;2024-02-26T03:34:52;100652.09;;;13.19;55.99
42169;BME280;27838;43.858;25.974;2024-02-26T03:37:19;100646.03;;;13.15;56.07
42169;BME280;27838;43.858;25.974;2024-02-26T03:39:46;100649.56;;;13.14;56.33
42169;BME280;27838;43.858;25.974;2024-02-26T03:42:12;100639.97;;;13.12;56.65
42169;BME280;27838;43.858;25.974;2024-02-26T03:44:39;100637.47;;;13.04;56.14
42169;BME280;27838;43.858;25.974;2024-02-26T03:47:05;100650.47;;;13.09;56.10
42169;BME280;27838;43.858;25.974;2024-02-26T03:49:32;100644.41;;;13.07;56.48
42169;BME280;27838;43.858;25.974;2024-02-26T03:51:58;100650.53;;;13.06;56.29
42169;BME280;27838;43.858;25.974;2024-02-26T03:54:25;100649.69;;;13.03;56.53
42169;BME280;27838;43.858;25.974;2024-02-26T03:56:54;100651.44;;;13.00;56.59
42169;BME280;27838;43.858;25.974;2024-02-26T03:59:21;100652.34;;;12.99;56.55
42169;BME280;27838;43.858;25.974;2024-02-26T04:01:49;100653.19;;;12.99;56.60
42169;BME280;27838;43.858;25.974;2024-02-26T04:04:16;100654.16;;;12.92;56.58
42169;BME280;27838;43.858;25.974;2024-02-26T04:06:46;100657.72;;;12.85;56.80
42169;BME280;27838;43.858;25.974;2024-02-26T04:09:14;100661.16;;;12.89;56.45
42169;BME280;27838;43.858;25.974;2024-02-26T04:11:41;100650.69;;;12.90;56.10
42169;BME280;27838;43.858;25.974;2024-02-26T04:14:08;100652.41;;;12.91;56.80
42169;BME280;27838;43.858;25.974;2024-02-26T04:16:37;100649.84;;;12.88;56.63
42169;BME280;27838;43.858;25.974;2024-02-26T04:19:03;100656.78;;;12.89;56.61
42169;BME280;27838;43.858;25.974;2024-02-26T04:21:30;100666.44;;;12.84;56.50
42169;BME280;27838;43.858;25.974;2024-02-26T04:23:56;100663.84;;;12.82;56.96
42169;BME280;27838;43.858;25.974;2024-02-26T04:26:26;100665.56;;;12.85;56.86
42169;BME280;27838;43.858;25.974;2024-02-26T04:28:53;100664.69;;;12.86;56.54
42169;BME280;27838;43.858;25.974;2024-02-26T04:31:19;100659.47;;;12.86;56.66
42169;BME280;27838;43.858;25.974;2024-02-26T04:33:46;100661.16;;;12.90;56.80
42169;BME280;27838;43.858;25.974;2024-02-26T04:36:15;100663.75;;;12.92;56.24
42169;BME280;27838;43.858;25.974;2024-02-26T04:38:43;100667.19;;;12.97;56.26
42169;BME280;27838;43.858;25.974;2024-02-26T04:41:09;100668.03;;;13.00;56.33
42169;BME280;27838;43.858;25.974;2024-02-26T04:43:37;100664.50;;;13.01;56.29
42169;BME280;27838;43.858;25.974;2024-02-26T04:46:07;100665.44;;;12.99;56.38
42169;BME280;27838;43.858;25.974;2024-02-26T04:48:35;100672.38;;;13.00;56.25
42169;BME280;27838;43.858;25.974;2024-02-26T04:51:02;100667.94;;;13.07;56.02
42169;BME280;27838;43.858;25.974;2024-02-26T04:53:29;100668.78;;;13.10;55.98
42169;BME280;27838;43.858;25.974;2024-02-26T04:55:56;100667.03;;;13.11;55.90
42169;BME280;27838;43.858;25.974;2024-02-26T04:58:22;100678.41;;;13.07;55.92
42169;BME280;27838;43.858;25.974;2024-02-26T05:00:49;100672.44;;;12.97;56.11
42169;BME280;27838;43.858;25.974;2024-02-26T05:03:15;100667.22;;;12.94;56.23
42169;BME280;27838;43.858;25.974;2024-02-26T05:05:43;100668.19;;;12.85;56.36
42169;BME280;27838;43.858;25.974;2024-02-26T05:08:10;100666.44;;;12.82;56.48
42169;BME280;27838;43.858;25.974;2024-02-26T05:10:37;100666.41;;;12.87;56.53
42169;BME280;27838;43.858;25.974;2024-02-26T05:13:06;100673.41;;;12.85;56.22
42169;BME280;27838;43.858;25.974;2024-02-26T05:15:33;100674.28;;;12.85;56.36
42169;BME280;27838;43.858;25.974;2024-02-26T05:17:59;100671.72;;;12.81;56.46
42169;BME280;27838;43.858;25.974;2024-02-26T05:20:26;100666.41;;;12.87;56.34
42169;BME280;27838;43.858;25.974;2024-02-26T05:22:53;100673.44;;;12.83;56.24
42169;BME280;27838;43.858;25.974;2024-02-26T05:25:20;100686.50;;;12.85;56.23
42169;BME280;27838;43.858;25.974;2024-02-26T05:27:46;100689.09;;;12.88;56.32
42169;BME280;27838;43.858;25.974;2024-02-26T05:30:13;100696.00;;;12.92;56.38
42169;BME280;27838;43.858;25.974;2024-02-26T05:32:39;100701.22;;;12.97;56.68
42169;BME280;27838;43.858;25.974;2024-02-26T05:35:06;100699.47;;;12.96;56.55
42169;BME280;27838;43.858;25.974;2024-02-26T05:37:33;100706.44;;;12.98;56.33
42169;BME280;27838;43.858;25.974;2024-02-26T05:40:00;100710.75;;;13.01;56.21
42169;BME280;27838;43.858;25.974;2024-02-26T05:42:29;100708.97;;;13.03;56.18
42169;BME280;27838;43.858;25.974;2024-02-26T05:44:56;100712.50;;;13.00;56.45
42169;BME280;27838;43.858;25.974;2024-02-26T05:47:23;100707.19;;;13.05;55.90
42169;BME280;27838;43.858;25.974;2024-02-26T05:49:49;100722.91;;;13.05;56.06
42169;BME280;27838;43.858;25.974;2024-02-26T05:52:16;100721.09;;;13.10;56.21
42169;BME280;27838;43.858;25.974;2024-02-26T05:54:42;100721.09;;;13.10;56.22
42169;BME280;27838;43.858;25.974;2024-02-26T05:57:09;100719.44;;;13.03;56.09
42169;BME280;27838;43.858;25.974;2024-02-26T05:59:36;100727.25;;;13.08;56.59
42169;BME280;27838;43.858;25.974;2024-02-26T06:02:03;100723.72;;;13.10;56.66
42169;BME280;27838;43.858;25.974;2024-02-26T06:04:29;100722.84;;;13.14;56.21
42169;BME280;27838;43.858;25.974;2024-02-26T06:06:56;100724.53;;;13.17;56.72
42169;BME280;27838;43.858;25.974;2024-02-26T06:09:23;100724.53;;;13.18;56.57
42169;BME280;27838;43.858;25.974;2024-02-26T06:11:49;100736.66;;;13.24;56.31
42169;BME280;27838;43.858;25.974;2024-02-26T06:14:16;100730.53;;;13.28;56.31
42169;BME280;27838;43.858;25.974;2024-02-26T06:16:44;100741.84;;;13.30;55.96
42169;BME280;27838;43.858;25.974;2024-02-26T06:19:10;100747.97;;;13.32;56.13
42169;BME280;27838;43.858;25.974;2024-02-26T06:21:37;100748.78;;;13.36;56.22
42169;BME280;27838;43.858;25.974;2024-02-26T06:24:04;100742.69;;;13.35;56.18
42169;BME280;27838;43.858;25.974;2024-02-26T06:26:30;100747.91;;;13.38;56.73
42169;BME280;27838;43.858;25.974;2024-02-26T06:28:58;100752.22;;;13.41;56.62
42169;BME280;27838;43.858;25.974;2024-02-26T06:31:25;100754.84;;;13.43;56.71
42169;BME280;27838;43.858;25.974;2024-02-26T06:33:53;100753.09;;;13.41;56.74
42169;BME280;27838;43.858;25.974;2024-02-26T06:36:20;100754.81;;;13.46;57.32
42169;BME280;27838;43.858;25.974;2024-02-26T06:38:47;100761.72;;;13.50;57.25
42169;BME280;27838;43.858;25.974;2024-02-26T06:41:14;100750.41;;;13.48;57.01
42169;BME280;27838;43.858;25.974;2024-02-26T06:43:40;100755.50;;;13.60;57.02
42169;BME280;27838;43.858;25.974;2024-02-26T06:46:07;100764.19;;;13.65;57.31
42169;BME280;27838;43.858;25.974;2024-02-26T06:48:34;100764.97;;;13.72;57.53
42169;BME280;27838;43.858;25.974;2024-02-26T06:51:02;100766.66;;;13.77;57.36
42169;BME280;27838;43.858;25.974;2024-02-26T06:53:29;100763.06;;;13.83;57.38
42169;BME280;27838;43.858;25.974;2024-02-26T06:55:55;100766.38;;;13.96;56.99
42169;BME280;27838;43.858;25.974;2024-02-26T06:58:21;100767.16;;;14.06;56.74
42169;BME280;27838;43.858;25.974;2024-02-26T07:00:47;100763.59;;;14.10;57.25
42169;BME280;27838;43.858;25.974;2024-02-26T07:03:14;100773.94;;;14.21;56.32
42169;BME280;27838;43.858;25.974;2024-02-26T07:05:41;100772.97;;;14.28;56.45
42169;BME280;27838;43.858;25.974;2024-02-26T07:08:09;100765.84;;;14.34;55.84
42169;BME280;27838;43.858;25.974;2024-02-26T07:10:36;100766.66;;;14.40;55.71
42169;BME280;27838;43.858;25.974;2024-02-26T07:13:02;100765.81;;;14.36;55.97
42169;BME280;27838;43.858;25.974;2024-02-26T07:15:29;100763.19;;;14.38;56.00
42169;BME280;27838;43.858;25.974;2024-02-26T07:17:56;100764.00;;;14.41;55.97
42169;BME280;27838;43.858;25.974;2024-02-26T07:20:28;100765.72;;;14.44;56.03
42169;BME280;27838;43.858;25.974;2024-02-26T07:22:54;100765.63;;;14.48;55.88
42169;BME280;27838;43.858;25.974;2024-02-26T07:25:21;100769.94;;;14.54;55.78
42169;BME280;27838;43.858;25.974;2024-02-26T07:27:49;100773.38;;;14.58;55.50
42169;BME280;27838;43.858;25.974;2024-02-26T07:30:16;100770.69;;;14.64;55.44
42169;BME280;27838;43.858;25.974;2024-02-26T07:32:43;100762.84;;;14.62;54.81
42169;BME280;27838;43.858;25.974;2024-02-26T07:35:09;100776.69;;;14.70;54.93
42169;BME280;27838;43.858;25.974;2024-02-26T07:37:36;100774.00;;;14.75;54.80
42169;BME280;27838;43.858;25.974;2024-02-26T07:40:03;100769.59;;;14.79;54.99
42169;BME280;27838;43.858;25.974;2024-02-26T07:42:31;100767.84;;;14.78;55.40
42169;BME280;27838;43.858;25.974;2024-02-26T07:44:57;100766.84;;;14.83;54.75
42169;BME280;27838;43.858;25.974;2024-02-26T07:47:24;100768.56;;;14.87;55.25
42169;BME280;27838;43.858;25.974;2024-02-26T07:49:50;100769.38;;;14.91;55.17
42169;BME280;27838;43.858;25.974;2024-02-26T07:52:20;100768.44;;;14.94;55.17
42169;BME280;27838;43.858;25.974;2024-02-26T07:54:46;100779.66;;;15.03;54.47
42169;BME280;27838;43.858;25.974;2024-02-26T07:57:13;100775.22;;;15.07;54.61
42169;BME280;27838;43.858;25.974;2024-02-26T07:59:42;100759.41;;;15.10;54.82
42169;BME280;27838;43.858;25.974;2024-02-26T08:02:10;100758.63;;;15.05;55.11
42169;BME280;27838;43.858;25.974;2024-02-26T08:04:36;100763.72;;;15.14;55.04
42169;BME280;27838;43.858;25.974;2024-02-26T08:07:03;100766.28;;;15.17;54.54
42169;BME280;27838;43.858;25.974;2024-02-26T08:09:29;100759.25;;;15.19;54.55
42169;BME280;27838;43.858;25.974;2024-02-26T08:11:56;100757.34;;;15.27;54.03
42169;BME280;27838;43.858;25.974;2024-02-26T08:14:23;100760.59;;;15.40;54.01
42169;BME280;27838;43.858;25.974;2024-02-26T08:16:49;100756.16;;;15.42;54.33
42169;BME280;27838;43.858;25.974;2024-02-26T08:19:16;100756.00;;;15.52;53.84
42169;BME280;27838;43.858;25.974;2024-02-26T08:21:43;100764.63;;;15.57;53.76
42169;BME280;27838;43.858;25.974;2024-02-26T08:24:09;100754.69;;;15.73;53.84
42169;BME280;27838;43.858;25.974;2024-02-26T08:26:36;100753.50;;;15.89;53.28
42169;BME280;27838;43.858;25.974;2024-02-26T08:29:02;100753.22;;;16.01;53.63
42169;BME280;27838;43.858;25.974;2024-02-26T08:31:29;100756.53;;;16.11;53.32
42169;BME280;27838;43.858;25.974;2024-02-26T08:33:55;100758.16;;;16.17;52.94
42169;BME280;27838;43.858;25.974;2024-02-26T08:36:23;100760.78;;;16.17;52.70
42169;BME280;27838;43.858;25.974;2024-02-26T08:38:50;100754.47;;;16.24;53.04
42169;BME280;27838;43.858;25.974;2024-02-26T08:41:16;100756.75;;;16.39;52.33
42169;BME280;27838;43.858;25.974;2024-02-26T08:43:43;100753.59;;;16.61;51.67
42169;BME280;27838;43.858;25.974;2024-02-26T08:46:09;100745.28;;;16.78;51.22
42169;BME280;27838;43.858;25.974;2024-02-26T08:48:36;100747.44;;;16.98;51.50
42169;BME280;27838;43.858;25.974;2024-02-26T08:51:07;100754.75;;;17.21;50.09
42169;BME280;27838;43.858;25.974;2024-02-26T08:53:34;100755.06;;;17.40;49.40
42169;BME280;27838;43.858;25.974;2024-02-26T08:56:01;100759.09;;;17.53;49.02
42169;BME280;27838;43.858;25.974;2024-02-26T08:58:28;100760.50;;;17.67;48.58
42169;BME280;27838;43.858;25.974;2024-02-26T09:00:55;100755.72;;;17.80;48.75
42169;BME280;27838;43.858;25.974;2024-02-26T09:03:22;100748.97;;;18.01;48.40
42169;BME280;27838;43.858;25.974;2024-02-26T09:05:48;100752.81;;;18.19;47.62
42169;BME280;27838;43.858;25.974;2024-02-26T09:08:15;100762.59;;;18.15;46.65
42169;BME280;27838;43.858;25.974;2024-02-26T09:10:42;100751.44;;;18.07;46.88
42169;BME280;27838;43.858;25.974;2024-02-26T09:13:08;100765.34;;;18.12;47.32
42169;BME280;27838;43.858;25.974;2024-02-26T09:15:35;100754.34;;;18.26;46.57
42169;BME280;27838;43.858;25.974;2024-02-26T09:18:01;100757.47;;;18.39;46.44
42169;BME280;27838;43.858;25.974;2024-02-26T09:20:28;100759.44;;;18.59;45.79
42169;BME280;27838;43.858;25.974;2024-02-26T09:22:54;100750.38;;;18.67;45.49
42169;BME280;27838;43.858;25.974;2024-02-26T09:25:21;100745.66;;;18.77;45.01
42169;BME280;27838;43.858;25.974;2024-02-26T09:27:48;100761.13;;;18.90;45.02
42169;BME280;27838;43.858;25.974;2024-02-26T09:30:14;100758.19;;;18.97;44.47
42169;BME280;27838;43.858;25.974;2024-02-26T09:32:41;100759.09;;;18.98;44.73
42169;BME280;27838;43.858;25.974;2024-02-26T09:35:07;100754.28;;;19.09;44.10
42169;BME280;27838;43.858;25.974;2024-02-26T09:37:34;100756.34;;;19.26;44.05
42169;BME280;27838;43.858;25.974;2024-02-26T09:40:03;100758.44;;;19.41;43.86
42169;BME280;27838;43.858;25.974;2024-02-26T09:42:31;100745.81;;;19.48;43.38
42169;BME280;27838;43.858;25.974;2024-02-26T09:45:00;100748.41;;;19.50;43.06
42169;BME280;27838;43.858;25.974;2024-02-26T09:47:31;100742.34;;;19.48;43.16
42169;BME280;27838;43.858;25.974;2024-02-26T09:49:58;100743.13;;;19.50;43.33
42169;BME280;27838;43.858;25.974;2024-02-26T09:52:28;100734.88;;;19.59;43.41
42169;BME280;27838;43.858;25.974;2024-02-26T09:54:55;100734.75;;;19.62;43.42
42169;BME280;27838;43.858;25.974;2024-02-26T09:57:21;100732.69;;;19.70;43.09
42169;BME280;27838;43.858;25.974;2024-02-26T09:59:51;100735.13;;;19.76;42.93
42169;BME280;27838;43.858;25.974;2024-02-26T10:02:20;100722.09;;;19.70;43.00
42169;BME280;27838;43.858;25.974;2024-02-26T10:04:47;100721.91;;;19.76;43.07
42169;BME280;27838;43.858;25.974;2024-02-26T10:07:18;100715.69;;;19.77;43.06
42169;BME280;27838;43.858;25.974;2024-02-26T10:09:45;100720.75;;;19.84;43.14
42169;BME280;27838;43.858;25.974;2024-02-26T10:12:12;100715.16;;;19.91;42.77
42169;BME280;27838;43.858;25.974;2024-02-26T10:14:40;100708.16;;;19.90;43.03
42169;BME280;27838;43.858;25.974;2024-02-26T10:17:07;100712.09;;;20.02;42.92
42169;BME280;27838;43.858;25.974;2024-02-26T10:19:35;100715.19;;;20.13;42.57
42169;BME280;27838;43.858;25.974;2024-02-26T10:22:01;100710.13;;;20.29;42.36
42169;BME280;27838;43.858;25.974;2024-02-26T10:24:30;100698.91;;;20.45;42.20
42169;BME280;27838;43.858;25.974;2024-02-26T10:26:57;100702.81;;;20.56;41.62
42169;BME280;27838;43.858;25.974;2024-02-26T10:29:24;100696.31;;;20.65;41.43
42169;BME280;27838;43.858;25.974;2024-02-26T10:31:52;100696.06;;;20.71;41.40
42169;BME280;27838;43.858;25.974;2024-02-26T10:34:19;100687.78;;;20.79;41.21
42169;BME280;27838;43.858;25.974;2024-02-26T10:36:46;100686.97;;;20.98;40.69
42169;BME280;27838;43.858;25.974;2024-02-26T10:39:13;100689.28;;;21.05;40.40
42169;BME280;27838;43.858;25.974;2024-02-26T10:41:40;100685.34;;;21.14;39.68
42169;BME280;27838;43.858;25.974;2024-02-26T10:44:11;100686.59;;;21.26;39.69
42169;BME280;27838;43.858;25.974;2024-02-26T10:46:40;100686.53;;;21.27;39.46
42169;BME280;27838;43.858;25.974;2024-02-26T10:49:14;100692.03;;;21.23;39.26
42169;BME280;27838;43.858;25.974;2024-02-26T10:51:44;100681.44;;;21.23;39.37
42169;BME280;27838;43.858;25.974;2024-02-26T10:54:15;100672.09;;;21.14;39.47
42169;BME280;27838;43.858;25.974;2024-02-26T10:56:42;100680.47;;;21.25;39.62
42169;BME280;27838;43.858;25.974;2024-02-26T10:59:09;100674.13;;;21.28;39.60
42169;BME280;27838;43.858;25.974;2024-02-26T11:01:36;100671.50;;;21.28;39.52
42169;BME280;27838;43.858;25.974;2024-02-26T11:04:04;100667.91;;;21.29;39.65
42169;BME280;27838;43.858;25.974;2024-02-26T11:06:31;100663.13;;;21.37;39.26
42169;BME280;27838;43.858;25.974;2024-02-26T11:09:01;100668.03;;;21.46;39.33
42169;BME280;27838;43.858;25.974;2024-02-26T11:11:30;100664.38;;;21.49;39.13
42169;BME280;27838;43.858;25.974;2024-02-26T11:13:59;100657.47;;;21.45;38.93
42169;BME280;27838;43.858;25.974;2024-02-26T11:16:28;100660.38;;;21.39;39.22
42169;BME280;27838;43.858;25.974;2024-02-26T11:18:57;100651.94;;;21.30;39.50
42169;BME280;27838;43.858;25.974;2024-02-26T11:21:24;100657.38;;;21.27;39.46
42169;BME280;27838;43.858;25.974;2024-02-26T11:23:55;100658.53;;;21.22;39.55
42169;BME280;27838;43.858;25.974;2024-02-26T11:26:23;100652.34;;;21.21;39.55
42169;BME280;27838;43.858;25.974;2024-02-26T11:28:52;100654.69;;;21.08;39.32
42169;BME280;27838;43.858;25.974;2024-02-26T11:31:19;100657.41;;;21.07;39.55
42169;BME280;27838;43.858;25.974;2024-02-26T11:33:53;100655.13;;;20.99;39.89
42169;BME280;27838;43.858;25.974;2024-02-26T11:36:20;100652.78;;;20.91;39.71
42169;BME280;27838;43.858;25.974;2024-02-26T11:38:47;100647.44;;;20.93;40.06
42169;BME280;27838;43.858;25.974;2024-02-26T11:41:17;100659.75;;;20.94;40.08
42169;BME280;27838;43.858;25.974;2024-02-26T11:43:57;100648.31;;;20.93;39.94
42169;BME280;27838;43.858;25.974;2024-02-26T11:46:26;100652.72;;;20.93;39.67
42169;BME280;27838;43.858;25.974;2024-02-26T11:49:29;100651.16;;;20.89;39.73
42169;BME280;27838;43.858;25.974;2024-02-26T11:51:51;100643.41;;;20.84;39.85
42169;BME280;27838;43.858;25.974;2024-02-26T11:57:40;100644.72;;;20.74;40.04
42169;BME280;27838;43.858;25.974;2024-02-26T12:02:46;100628.84;;;20.53;40.09
42169;BME280;27838;43.858;25.974;2024-02-26T12:05:17;100632.53;;;20.49;40.04
42169;BME280;27838;43.858;25.974;2024-02-26T12:08:04;100632.91;;;20.40;40.16
42169;BME280;27838;43.858;25.974;2024-02-26T12:10:39;100629.47;;;20.38;40.21
42169;BME280;27838;43.858;25.974;2024-02-26T12:13:16;100632.97;;;20.38;40.27
42169;BME280;27838;43.858;25.974;2024-02-26T12:15:57;100632.78;;;20.43;39.88
42169;BME280;27838;43.858;25.974;2024-02-26T12:18:24;100627.38;;;20.46;39.97
42169;BME280;27838;43.858;25.974;2024-02-26T12:21:04;100623.00;;;20.45;39.59
42169;BME280;27838;43.858;25.974;2024-02-26T12:23:30;100624.19;;;20.59;39.79
42169;BME280;27838;43.858;25.974;2024-02-26T12:26:00;100617.63;;;20.69;39.57
42169;BME280;27838;43.858;25.974;2024-02-26T12:28:31;100619.56;;;20.84;39.06
42169;BME280;27838;43.858;25.974;2024-02-26T12:30:58;100623.41;;;20.98;38.75
42169;BME280;27838;43.858;25.974;2024-02-26T12:33:26;100624.06;;;21.03;39.00
42169;BME280;27838;43.858;25.974;2024-02-26T12:35:53;100617.53;;;21.10;38.85
42169;BME280;27838;43.858;25.974;2024-02-26T12:38:20;100612.81;;;21.17;38.58
42169;BME280;27838;43.858;25.974;2024-02-26T12:40:46;100619.50;;;21.25;38.60
42169;BME280;27838;43.858;25.974;2024-02-26T12:43:15;100617.75;;;21.24;38.60
42169;BME280;27838;43.858;25.974;2024-02-26T12:45:42;100618.78;;;21.22;38.90
42169;BME280;27838;43.858;25.974;2024-02-26T12:48:12;100608.50;;;21.14;38.84